sensor_id;sensor_type;location;lat;lon;timestamp;temperature;humidity
79698;SHT31;69168;42.708;23.286;2023-07-20T00:00:25;25.12;53.14
79698;SHT31;69168;42.708;23.286;2023-07-20T00:02:50;25.26;54.31
79698;SHT31;69168;42.708;23.286;2023-07-20T00:05:16;25.32;53.81
79698;SHT31;69168;42.708;23.286;2023-07-20T00:07:47;25.25;54.80
79698;SHT31;69168;42.708;23.286;2023-07-20T00:10:13;25.33;54.50
79698;SHT31;69168;42.708;23.286;2023-07-20T00:12:38;25.30;54.34
79698;SHT31;69168;42.708;23.286;2023-07-20T00:15:04;25.12;55.24
79698;SHT31;69168;42.708;23.286;2023-07-20T00:17:30;25.26;54.50
79698;SHT31;69168;42.708;23.286;2023-07-20T00:19:55;25.14;54.87
79698;SHT31;69168;42.708;23.286;2023-07-20T00:22:21;25.29;54.77
79698;SHT31;69168;42.708;23.286;2023-07-20T00:24:46;25.39;54.33
79698;SHT31;69168;42.708;23.286;2023-07-20T00:27:11;25.43;54.72
79698;SHT31;69168;42.708;23.286;2023-07-20T00:29:37;25.59;54.54
79698;SHT31;69168;42.708;23.286;2023-07-20T00:32:03;25.12;55.31
79698;SHT31;69168;42.708;23.286;2023-07-20T00:34:30;25.45;55.13
79698;SHT31;69168;42.708;23.286;2023-07-20T00:36:56;24.94;54.88
79698;SHT31;69168;42.708;23.286;2023-07-20T00:39:21;25.14;54.38
79698;SHT31;69168;42.708;23.286;2023-07-20T00:41:47;25.25;54.81
79698;SHT31;69168;42.708;23.286;2023-07-20T00:44:12;25.30;54.73
79698;SHT31;69168;42.708;23.286;2023-07-20T00:46:38;25.36;54.97
79698;SHT31;69168;42.708;23.286;2023-07-20T00:49:04;25.49;54.84
79698;SHT31;69168;42.708;23.286;2023-07-20T00:51:29;25.69;54.29
79698;SHT31;69168;42.708;23.286;2023-07-20T00:53:55;25.71;54.21
79698;SHT31;69168;42.708;23.286;2023-07-20T00:56:21;25.53;54.69
79698;SHT31;69168;42.708;23.286;2023-07-20T00:58:47;25.50;54.93
79698;SHT31;69168;42.708;23.286;2023-07-20T01:01:12;25.69;54.50
79698;SHT31;69168;42.708;23.286;2023-07-20T01:03:38;25.53;55.09
79698;SHT31;69168;42.708;23.286;2023-07-20T01:09:07;25.45;55.21
79698;SHT31;69168;42.708;23.286;2023-07-20T01:11:45;25.01;55.69
79698;SHT31;69168;42.708;23.286;2023-07-20T01:14:14;24.81;56.49
79698;SHT31;69168;42.708;23.286;2023-07-20T01:16:39;24.67;56.72
79698;SHT31;69168;42.708;23.286;2023-07-20T01:19:05;24.98;56.28
79698;SHT31;69168;42.708;23.286;2023-07-20T01:21:47;25.05;55.94
79698;SHT31;69168;42.708;23.286;2023-07-20T01:27:25;24.81;56.46
79698;SHT31;69168;42.708;23.286;2023-07-20T01:32:40;24.84;56.65
79698;SHT31;69168;42.708;23.286;2023-07-20T01:35:09;24.80;56.72
79698;SHT31;69168;42.708;23.286;2023-07-20T01:37:37;24.85;56.83
79698;SHT31;69168;42.708;23.286;2023-07-20T01:40:03;24.56;57.45
79698;SHT31;69168;42.708;23.286;2023-07-20T01:42:29;24.39;57.83
79698;SHT31;69168;42.708;23.286;2023-07-20T01:44:54;24.26;58.12
79698;SHT31;69168;42.708;23.286;2023-07-20T01:47:20;24.05;58.27
79698;SHT31;69168;42.708;23.286;2023-07-20T01:49:45;24.02;58.46
79698;SHT31;69168;42.708;23.286;2023-07-20T01:52:11;24.16;57.81
79698;SHT31;69168;42.708;23.286;2023-07-20T01:54:36;24.26;57.65
79698;SHT31;69168;42.708;23.286;2023-07-20T01:57:02;24.53;57.51
79698;SHT31;69168;42.708;23.286;2023-07-20T01:59:28;24.44;57.73
79698;SHT31;69168;42.708;23.286;2023-07-20T02:01:53;24.44;57.31
79698;SHT31;69168;42.708;23.286;2023-07-20T02:04:19;24.01;58.30
79698;SHT31;69168;42.708;23.286;2023-07-20T02:06:44;23.94;58.81
79698;SHT31;69168;42.708;23.286;2023-07-20T02:09:10;23.94;59.06
79698;SHT31;69168;42.708;23.286;2023-07-20T02:11:35;24.12;58.58
79698;SHT31;69168;42.708;23.286;2023-07-20T02:14:01;24.10;58.36
79698;SHT31;69168;42.708;23.286;2023-07-20T02:16:26;23.55;59.42
79698;SHT31;69168;42.708;23.286;2023-07-20T02:18:52;23.44;59.50
79698;SHT31;69168;42.708;23.286;2023-07-20T02:21:18;23.61;59.70
79698;SHT31;69168;42.708;23.286;2023-07-20T02:23:43;23.99;58.94
79698;SHT31;69168;42.708;23.286;2023-07-20T02:26:09;24.04;58.71
79698;SHT31;69168;42.708;23.286;2023-07-20T02:28:34;24.09;58.56
79698;SHT31;69168;42.708;23.286;2023-07-20T02:30:59;24.16;58.50
79698;SHT31;69168;42.708;23.286;2023-07-20T02:33:25;23.84;58.59
79698;SHT31;69168;42.708;23.286;2023-07-20T02:35:51;23.98;58.57
79698;SHT31;69168;42.708;23.286;2023-07-20T02:38:17;23.99;58.80
79698;SHT31;69168;42.708;23.286;2023-07-20T02:40:42;23.99;58.29
79698;SHT31;69168;42.708;23.286;2023-07-20T02:43:08;23.95;58.65
79698;SHT31;69168;42.708;23.286;2023-07-20T02:45:34;23.78;59.12
79698;SHT31;69168;42.708;23.286;2023-07-20T02:48:00;23.79;58.80
79698;SHT31;69168;42.708;23.286;2023-07-20T02:50:26;23.75;59.12
79698;SHT31;69168;42.708;23.286;2023-07-20T02:52:51;23.75;59.93
79698;SHT31;69168;42.708;23.286;2023-07-20T02:55:17;23.67;60.54
79698;SHT31;69168;42.708;23.286;2023-07-20T02:57:42;23.74;60.29
79698;SHT31;69168;42.708;23.286;2023-07-20T03:00:08;23.75;60.42
79698;SHT31;69168;42.708;23.286;2023-07-20T03:02:34;23.74;60.29
79698;SHT31;69168;42.708;23.286;2023-07-20T03:05:00;23.46;61.13
79698;SHT31;69168;42.708;23.286;2023-07-20T03:07:28;23.31;61.36
79698;SHT31;69168;42.708;23.286;2023-07-20T03:09:54;23.06;61.30
79698;SHT31;69168;42.708;23.286;2023-07-20T03:12:20;23.09;62.03
79698;SHT31;69168;42.708;23.286;2023-07-20T03:14:46;23.33;61.63
79698;SHT31;69168;42.708;23.286;2023-07-20T03:17:11;23.44;60.97
79698;SHT31;69168;42.708;23.286;2023-07-20T03:19:37;23.12;61.65
79698;SHT31;69168;42.708;23.286;2023-07-20T03:22:02;23.05;61.52
79698;SHT31;69168;42.708;23.286;2023-07-20T03:24:28;22.99;61.91
79698;SHT31;69168;42.708;23.286;2023-07-20T03:26:53;23.10;61.49
79698;SHT31;69168;42.708;23.286;2023-07-20T03:29:19;23.09;61.69
79698;SHT31;69168;42.708;23.286;2023-07-20T03:31:44;23.24;61.35
79698;SHT31;69168;42.708;23.286;2023-07-20T03:34:10;23.23;61.40
79698;SHT31;69168;42.708;23.286;2023-07-20T03:36:35;22.92;62.16
79698;SHT31;69168;42.708;23.286;2023-07-20T03:39:00;22.75;62.45
79698;SHT31;69168;42.708;23.286;2023-07-20T03:41:26;22.69;62.46
79698;SHT31;69168;42.708;23.286;2023-07-20T03:43:51;22.48;63.06
79698;SHT31;69168;42.708;23.286;2023-07-20T03:46:17;22.54;63.07
79698;SHT31;69168;42.708;23.286;2023-07-20T03:48:42;22.58;62.86
79698;SHT31;69168;42.708;23.286;2023-07-20T03:51:08;22.91;62.04
79698;SHT31;69168;42.708;23.286;2023-07-20T03:53:33;22.71;62.49
79698;SHT31;69168;42.708;23.286;2023-07-20T03:55:59;22.76;62.61
79698;SHT31;69168;42.708;23.286;2023-07-20T03:58:24;22.82;62.36
79698;SHT31;69168;42.708;23.286;2023-07-20T04:00:51;22.89;62.15
79698;SHT31;69168;42.708;23.286;2023-07-20T04:03:17;23.19;61.66
79698;SHT31;69168;42.708;23.286;2023-07-20T04:05:44;23.29;61.32
79698;SHT31;69168;42.708;23.286;2023-07-20T04:08:09;23.37;60.91
79698;SHT31;69168;42.708;23.286;2023-07-20T04:10:36;23.34;61.32
79698;SHT31;69168;42.708;23.286;2023-07-20T04:13:02;23.30;61.78
79698;SHT31;69168;42.708;23.286;2023-07-20T04:15:27;23.43;61.23
79698;SHT31;69168;42.708;23.286;2023-07-20T04:17:53;23.55;60.92
79698;SHT31;69168;42.708;23.286;2023-07-20T04:20:18;23.57;60.56
79698;SHT31;69168;42.708;23.286;2023-07-20T04:22:44;23.53;60.90
79698;SHT31;69168;42.708;23.286;2023-07-20T04:25:09;23.75;60.56
79698;SHT31;69168;42.708;23.286;2023-07-20T04:27:35;23.70;60.57
79698;SHT31;69168;42.708;23.286;2023-07-20T04:30:01;23.55;60.82
79698;SHT31;69168;42.708;23.286;2023-07-20T04:32:30;23.60;60.99
79698;SHT31;69168;42.708;23.286;2023-07-20T04:34:58;23.50;61.13
79698;SHT31;69168;42.708;23.286;2023-07-20T04:37:24;23.75;60.76
79698;SHT31;69168;42.708;23.286;2023-07-20T04:39:49;23.79;60.99
79698;SHT31;69168;42.708;23.286;2023-07-20T04:42:15;23.98;60.44
79698;SHT31;69168;42.708;23.286;2023-07-20T04:44:41;24.16;60.21
79698;SHT31;69168;42.708;23.286;2023-07-20T04:47:06;24.22;60.16
79698;SHT31;69168;42.708;23.286;2023-07-20T04:49:33;24.23;60.00
79698;SHT31;69168;42.708;23.286;2023-07-20T04:51:59;24.19;60.33
79698;SHT31;69168;42.708;23.286;2023-07-20T04:54:24;24.25;60.60
79698;SHT31;69168;42.708;23.286;2023-07-20T04:56:53;24.32;60.27
79698;SHT31;69168;42.708;23.286;2023-07-20T04:59:18;24.28;60.10
79698;SHT31;69168;42.708;23.286;2023-07-20T05:01:44;24.44;59.74
79698;SHT31;69168;42.708;23.286;2023-07-20T05:04:09;24.40;59.84
79698;SHT31;69168;42.708;23.286;2023-07-20T05:06:35;24.52;59.37
79698;SHT31;69168;42.708;23.286;2023-07-20T05:09:00;24.52;59.01
79698;SHT31;69168;42.708;23.286;2023-07-20T05:11:26;24.53;58.72
79698;SHT31;69168;42.708;23.286;2023-07-20T05:13:51;24.70;58.48
79698;SHT31;69168;42.708;23.286;2023-07-20T05:16:16;24.53;58.67
79698;SHT31;69168;42.708;23.286;2023-07-20T05:18:42;24.41;59.08
79698;SHT31;69168;42.708;23.286;2023-07-20T05:21:07;24.57;58.59
79698;SHT31;69168;42.708;23.286;2023-07-20T05:23:33;24.64;58.56
79698;SHT31;69168;42.708;23.286;2023-07-20T05:25:59;24.78;58.25
79698;SHT31;69168;42.708;23.286;2023-07-20T05:28:25;24.63;58.73
79698;SHT31;69168;42.708;23.286;2023-07-20T05:30:53;24.49;58.16
79698;SHT31;69168;42.708;23.286;2023-07-20T05:33:22;24.50;58.76
79698;SHT31;69168;42.708;23.286;2023-07-20T05:35:48;24.18;59.26
79698;SHT31;69168;42.708;23.286;2023-07-20T05:38:13;24.05;59.50
79698;SHT31;69168;42.708;23.286;2023-07-20T05:40:41;24.33;58.60
79698;SHT31;69168;42.708;23.286;2023-07-20T05:43:10;24.23;59.58
79698;SHT31;69168;42.708;23.286;2023-07-20T05:45:35;24.32;59.21
79698;SHT31;69168;42.708;23.286;2023-07-20T05:48:01;24.32;59.47
79698;SHT31;69168;42.708;23.286;2023-07-20T05:50:26;24.50;58.59
79698;SHT31;69168;42.708;23.286;2023-07-20T05:52:53;24.47;58.35
79698;SHT31;69168;42.708;23.286;2023-07-20T05:55:18;24.49;58.93
79698;SHT31;69168;42.708;23.286;2023-07-20T05:57:44;24.63;58.77
79698;SHT31;69168;42.708;23.286;2023-07-20T06:00:10;24.70;58.69
79698;SHT31;69168;42.708;23.286;2023-07-20T06:02:38;24.33;59.13
79698;SHT31;69168;42.708;23.286;2023-07-20T06:05:03;24.19;59.61
79698;SHT31;69168;42.708;23.286;2023-07-20T06:07:29;24.33;58.94
79698;SHT31;69168;42.708;23.286;2023-07-20T06:09:54;24.52;58.28
79698;SHT31;69168;42.708;23.286;2023-07-20T06:12:20;24.43;59.09
79698;SHT31;69168;42.708;23.286;2023-07-20T06:14:45;24.28;59.19
79698;SHT31;69168;42.708;23.286;2023-07-20T06:17:11;24.26;59.39
79698;SHT31;69168;42.708;23.286;2023-07-20T06:19:37;24.29;59.12
79698;SHT31;69168;42.708;23.286;2023-07-20T06:22:02;24.39;58.85
79698;SHT31;69168;42.708;23.286;2023-07-20T06:24:28;24.44;58.70
79698;SHT31;69168;42.708;23.286;2023-07-20T06:26:53;24.61;57.85
79698;SHT31;69168;42.708;23.286;2023-07-20T06:29:19;24.60;57.70
79698;SHT31;69168;42.708;23.286;2023-07-20T06:31:44;24.32;58.08
79698;SHT31;69168;42.708;23.286;2023-07-20T06:34:10;24.80;56.91
79698;SHT31;69168;42.708;23.286;2023-07-20T06:36:35;24.87;57.09
79698;SHT31;69168;42.708;23.286;2023-07-20T06:39:01;24.73;57.51
79698;SHT31;69168;42.708;23.286;2023-07-20T06:41:28;24.77;57.57
79698;SHT31;69168;42.708;23.286;2023-07-20T06:43:53;24.85;57.85
79698;SHT31;69168;42.708;23.286;2023-07-20T06:46:25;24.77;57.53
79698;SHT31;69168;42.708;23.286;2023-07-20T06:48:51;24.78;57.24
79698;SHT31;69168;42.708;23.286;2023-07-20T06:51:16;25.02;56.67
79698;SHT31;69168;42.708;23.286;2023-07-20T06:53:43;25.38;56.33
79698;SHT31;69168;42.708;23.286;2023-07-20T06:56:08;25.26;55.75
79698;SHT31;69168;42.708;23.286;2023-07-20T06:58:33;25.20;54.99
79698;SHT31;69168;42.708;23.286;2023-07-20T07:01:04;25.59;54.53
79698;SHT31;69168;42.708;23.286;2023-07-20T07:03:30;25.75;55.31
79698;SHT31;69168;42.708;23.286;2023-07-20T07:05:56;25.97;54.80
79698;SHT31;69168;42.708;23.286;2023-07-20T07:08:21;26.19;55.06
79698;SHT31;69168;42.708;23.286;2023-07-20T07:10:47;26.22;54.85
79698;SHT31;69168;42.708;23.286;2023-07-20T07:13:12;26.19;54.27
79698;SHT31;69168;42.708;23.286;2023-07-20T07:15:38;25.88;54.83
79698;SHT31;69168;42.708;23.286;2023-07-20T07:18:03;25.81;54.42
79698;SHT31;69168;42.708;23.286;2023-07-20T07:20:29;25.73;54.46
79698;SHT31;69168;42.708;23.286;2023-07-20T07:22:55;25.70;54.27
79698;SHT31;69168;42.708;23.286;2023-07-20T07:25:21;25.64;54.55
79698;SHT31;69168;42.708;23.286;2023-07-20T07:27:46;25.77;55.27
79698;SHT31;69168;42.708;23.286;2023-07-20T07:30:12;25.97;55.37
79698;SHT31;69168;42.708;23.286;2023-07-20T07:32:37;26.18;54.58
79698;SHT31;69168;42.708;23.286;2023-07-20T07:35:04;26.12;54.38
79698;SHT31;69168;42.708;23.286;2023-07-20T07:37:30;26.24;55.10
79698;SHT31;69168;42.708;23.286;2023-07-20T07:39:55;26.21;55.29
79698;SHT31;69168;42.708;23.286;2023-07-20T07:42:20;26.32;54.18
79698;SHT31;69168;42.708;23.286;2023-07-20T07:44:46;26.36;54.15
79698;SHT31;69168;42.708;23.286;2023-07-20T07:47:11;26.31;54.39
79698;SHT31;69168;42.708;23.286;2023-07-20T07:49:37;26.49;53.95
79698;SHT31;69168;42.708;23.286;2023-07-20T07:52:03;26.50;53.39
79698;SHT31;69168;42.708;23.286;2023-07-20T07:54:28;26.39;52.93
79698;SHT31;69168;42.708;23.286;2023-07-20T07:56:54;26.11;53.85
79698;SHT31;69168;42.708;23.286;2023-07-20T07:59:20;26.05;53.85
79698;SHT31;69168;42.708;23.286;2023-07-20T08:01:45;26.02;54.28
79698;SHT31;69168;42.708;23.286;2023-07-20T08:04:11;26.02;54.89
79698;SHT31;69168;42.708;23.286;2023-07-20T08:06:36;26.01;54.48
79698;SHT31;69168;42.708;23.286;2023-07-20T08:09:02;25.91;54.65
79698;SHT31;69168;42.708;23.286;2023-07-20T08:11:28;26.01;55.31
79698;SHT31;69168;42.708;23.286;2023-07-20T08:13:56;25.93;56.07
79698;SHT31;69168;42.708;23.286;2023-07-20T08:16:21;25.74;56.90
79698;SHT31;69168;42.708;23.286;2023-07-20T08:18:47;25.49;57.02
79698;SHT31;69168;42.708;23.286;2023-07-20T08:21:12;25.33;56.64
79698;SHT31;69168;42.708;23.286;2023-07-20T08:23:38;25.40;54.40
79698;SHT31;69168;42.708;23.286;2023-07-20T08:26:03;25.23;54.27
79698;SHT31;69168;42.708;23.286;2023-07-20T08:28:29;25.50;54.18
79698;SHT31;69168;42.708;23.286;2023-07-20T08:30:54;25.53;52.41
79698;SHT31;69168;42.708;23.286;2023-07-20T08:33:20;25.62;52.46
79698;SHT31;69168;42.708;23.286;2023-07-20T08:35:46;25.54;51.80
79698;SHT31;69168;42.708;23.286;2023-07-20T08:38:12;25.54;52.09
79698;SHT31;69168;42.708;23.286;2023-07-20T08:40:56;25.64;52.90
79698;SHT31;69168;42.708;23.286;2023-07-20T08:43:22;25.80;52.84
79698;SHT31;69168;42.708;23.286;2023-07-20T08:45:52;25.88;52.92
79698;SHT31;69168;42.708;23.286;2023-07-20T08:48:20;25.84;52.89
79698;SHT31;69168;42.708;23.286;2023-07-20T08:50:47;25.94;52.11
79698;SHT31;69168;42.708;23.286;2023-07-20T08:53:14;26.01;50.98
79698;SHT31;69168;42.708;23.286;2023-07-20T08:55:41;26.05;50.55
79698;SHT31;69168;42.708;23.286;2023-07-20T08:58:08;26.01;50.27
79698;SHT31;69168;42.708;23.286;2023-07-20T09:00:36;26.09;49.86
79698;SHT31;69168;42.708;23.286;2023-07-20T09:03:02;26.08;50.00
79698;SHT31;69168;42.708;23.286;2023-07-20T09:05:29;26.05;48.32
79698;SHT31;69168;42.708;23.286;2023-07-20T09:07:55;26.12;48.72
79698;SHT31;69168;42.708;23.286;2023-07-20T09:10:24;26.14;49.18
79698;SHT31;69168;42.708;23.286;2023-07-20T09:12:49;26.28;49.33
79698;SHT31;69168;42.708;23.286;2023-07-20T09:15:15;26.31;48.47
79698;SHT31;69168;42.708;23.286;2023-07-20T09:17:48;26.47;48.49
79698;SHT31;69168;42.708;23.286;2023-07-20T09:20:18;26.49;48.32
79698;SHT31;69168;42.708;23.286;2023-07-20T09:22:44;26.67;48.90
79698;SHT31;69168;42.708;23.286;2023-07-20T09:25:16;26.76;49.07
79698;SHT31;69168;42.708;23.286;2023-07-20T09:27:45;26.87;48.62
79698;SHT31;69168;42.708;23.286;2023-07-20T09:30:11;26.82;47.42
79698;SHT31;69168;42.708;23.286;2023-07-20T09:35:19;26.90;46.81
79698;SHT31;69168;42.708;23.286;2023-07-20T09:37:50;27.04;46.44
79698;SHT31;69168;42.708;23.286;2023-07-20T09:40:19;27.01;45.33
79698;SHT31;69168;42.708;23.286;2023-07-20T09:42:45;27.15;46.00
79698;SHT31;69168;42.708;23.286;2023-07-20T09:45:11;27.25;45.39
79698;SHT31;69168;42.708;23.286;2023-07-20T09:47:37;27.29;44.42
79698;SHT31;69168;42.708;23.286;2023-07-20T09:50:04;27.50;44.58
79698;SHT31;69168;42.708;23.286;2023-07-20T09:52:32;27.71;43.62
79698;SHT31;69168;42.708;23.286;2023-07-20T09:54:59;27.77;43.39
79698;SHT31;69168;42.708;23.286;2023-07-20T09:57:26;27.82;41.85
79698;SHT31;69168;42.708;23.286;2023-07-20T09:59:51;27.90;43.50
79698;SHT31;69168;42.708;23.286;2023-07-20T10:02:21;27.92;43.63
79698;SHT31;69168;42.708;23.286;2023-07-20T10:04:53;27.89;43.82
79698;SHT31;69168;42.708;23.286;2023-07-20T10:07:21;27.89;43.93
79698;SHT31;69168;42.708;23.286;2023-07-20T10:09:48;27.73;43.90
79698;SHT31;69168;42.708;23.286;2023-07-20T10:12:16;27.92;44.26
79698;SHT31;69168;42.708;23.286;2023-07-20T10:14:53;27.86;42.77
79698;SHT31;69168;42.708;23.286;2023-07-20T10:17:21;28.01;43.16
79698;SHT31;69168;42.708;23.286;2023-07-20T10:19:47;28.11;44.16
79698;SHT31;69168;42.708;23.286;2023-07-20T10:22:19;27.90;44.36
79698;SHT31;69168;42.708;23.286;2023-07-20T10:24:46;28.07;45.39
79698;SHT31;69168;42.708;23.286;2023-07-20T10:27:15;28.03;45.44
79698;SHT31;69168;42.708;23.286;2023-07-20T10:29:41;28.07;44.15
79698;SHT31;69168;42.708;23.286;2023-07-20T10:32:07;28.04;44.55
79698;SHT31;69168;42.708;23.286;2023-07-20T10:34:33;27.93;45.18
79698;SHT31;69168;42.708;23.286;2023-07-20T10:36:58;27.84;43.80
79698;SHT31;69168;42.708;23.286;2023-07-20T10:39:26;27.71;44.12
79698;SHT31;69168;42.708;23.286;2023-07-20T10:42:09;27.87;45.00
79698;SHT31;69168;42.708;23.286;2023-07-20T10:44:39;27.79;44.53
79698;SHT31;69168;42.708;23.286;2023-07-20T10:47:09;27.92;44.64
79698;SHT31;69168;42.708;23.286;2023-07-20T10:49:35;28.14;44.75
79698;SHT31;69168;42.708;23.286;2023-07-20T10:52:20;28.39;44.86
79698;SHT31;69168;42.708;23.286;2023-07-20T10:54:49;28.21;45.21
79698;SHT31;69168;42.708;23.286;2023-07-20T10:57:28;28.22;44.71
79698;SHT31;69168;42.708;23.286;2023-07-20T10:59:56;28.24;44.08
79698;SHT31;69168;42.708;23.286;2023-07-20T11:02:41;28.45;43.64
79698;SHT31;69168;42.708;23.286;2023-07-20T11:05:07;28.67;42.82
79698;SHT31;69168;42.708;23.286;2023-07-20T11:07:37;28.96;41.77
79698;SHT31;69168;42.708;23.286;2023-07-20T11:10:15;28.84;40.44
79698;SHT31;69168;42.708;23.286;2023-07-20T11:12:40;29.02;40.44
79698;SHT31;69168;42.708;23.286;2023-07-20T11:15:06;29.32;41.27
79698;SHT31;69168;42.708;23.286;2023-07-20T11:17:32;29.30;40.14
79698;SHT31;69168;42.708;23.286;2023-07-20T11:19:58;29.34;40.34
79698;SHT31;69168;42.708;23.286;2023-07-20T11:22:26;29.34;40.87
79698;SHT31;69168;42.708;23.286;2023-07-20T11:24:55;29.49;41.19
79698;SHT31;69168;42.708;23.286;2023-07-20T11:27:20;29.59;41.03
79698;SHT31;69168;42.708;23.286;2023-07-20T11:29:48;29.69;40.65
79698;SHT31;69168;42.708;23.286;2023-07-20T11:32:20;29.73;39.69
79698;SHT31;69168;42.708;23.286;2023-07-20T11:34:47;29.94;39.87
79698;SHT31;69168;42.708;23.286;2023-07-20T11:37:13;30.24;38.61
79698;SHT31;69168;42.708;23.286;2023-07-20T11:39:38;30.48;39.39
79698;SHT31;69168;42.708;23.286;2023-07-20T11:42:05;30.69;39.16
79698;SHT31;69168;42.708;23.286;2023-07-20T11:44:31;31.00;38.74
79698;SHT31;69168;42.708;23.286;2023-07-20T11:49:28;31.23;37.35
79698;SHT31;69168;42.708;23.286;2023-07-20T11:51:54;31.72;37.33
79698;SHT31;69168;42.708;23.286;2023-07-20T11:54:20;31.97;37.28
79698;SHT31;69168;42.708;23.286;2023-07-20T11:56:46;31.88;36.60
79698;SHT31;69168;42.708;23.286;2023-07-20T11:59:11;31.81;36.22
79698;SHT31;69168;42.708;23.286;2023-07-20T12:01:36;32.26;36.60
79698;SHT31;69168;42.708;23.286;2023-07-20T12:04:05;32.95;35.72
79698;SHT31;69168;42.708;23.286;2023-07-20T12:06:32;33.12;35.08
79698;SHT31;69168;42.708;23.286;2023-07-20T12:08:57;33.64;34.70
79698;SHT31;69168;42.708;23.286;2023-07-20T12:11:37;33.66;34.25
79698;SHT31;69168;42.708;23.286;2023-07-20T12:14:04;33.19;34.15
79698;SHT31;69168;42.708;23.286;2023-07-20T12:16:32;33.23;34.08
79698;SHT31;69168;42.708;23.286;2023-07-20T12:19:07;33.33;34.32
79698;SHT31;69168;42.708;23.286;2023-07-20T12:21:38;33.26;34.19
79698;SHT31;69168;42.708;23.286;2023-07-20T12:24:04;33.78;33.32
79698;SHT31;69168;42.708;23.286;2023-07-20T12:26:31;33.93;32.29
79698;SHT31;69168;42.708;23.286;2023-07-20T12:28:57;33.95;30.03
79698;SHT31;69168;42.708;23.286;2023-07-20T12:31:23;34.08;29.56
79698;SHT31;69168;42.708;23.286;2023-07-20T12:33:53;34.11;29.02
79698;SHT31;69168;42.708;23.286;2023-07-20T12:36:20;34.00;28.77
79698;SHT31;69168;42.708;23.286;2023-07-20T12:38:46;34.00;28.77
79698;SHT31;69168;42.708;23.286;2023-07-20T12:41:11;34.04;29.24
79698;SHT31;69168;42.708;23.286;2023-07-20T12:43:44;34.70;28.87
79698;SHT31;69168;42.708;23.286;2023-07-20T12:46:11;35.14;28.19
79698;SHT31;69168;42.708;23.286;2023-07-20T12:48:40;34.97;29.43
79698;SHT31;69168;42.708;23.286;2023-07-20T12:51:08;34.15;29.80
79698;SHT31;69168;42.708;23.286;2023-07-20T12:53:33;34.12;29.63
79698;SHT31;69168;42.708;23.286;2023-07-20T12:56:01;34.26;30.48
79698;SHT31;69168;42.708;23.286;2023-07-20T12:58:27;34.46;30.40
79698;SHT31;69168;42.708;23.286;2023-07-20T13:00:53;34.08;30.64
79698;SHT31;69168;42.708;23.286;2023-07-20T13:03:19;34.21;30.30
79698;SHT31;69168;42.708;23.286;2023-07-20T13:05:47;34.50;30.28
79698;SHT31;69168;42.708;23.286;2023-07-20T13:08:13;34.59;30.88
79698;SHT31;69168;42.708;23.286;2023-07-20T13:10:39;34.66;30.53
79698;SHT31;69168;42.708;23.286;2023-07-20T13:13:05;34.42;29.43
79698;SHT31;69168;42.708;23.286;2023-07-20T13:15:32;34.73;30.36
79698;SHT31;69168;42.708;23.286;2023-07-20T13:17:58;34.74;30.18
79698;SHT31;69168;42.708;23.286;2023-07-20T13:20:25;34.46;30.64
79698;SHT31;69168;42.708;23.286;2023-07-20T13:22:51;34.87;30.83
79698;SHT31;69168;42.708;23.286;2023-07-20T13:25:16;35.01;30.81
79698;SHT31;69168;42.708;23.286;2023-07-20T13:27:42;35.21;30.99
79698;SHT31;69168;42.708;23.286;2023-07-20T13:30:08;35.15;30.55
79698;SHT31;69168;42.708;23.286;2023-07-20T13:32:35;34.56;31.17
79698;SHT31;69168;42.708;23.286;2023-07-20T13:35:01;34.55;31.62
79698;SHT31;69168;42.708;23.286;2023-07-20T13:37:27;34.50;31.34
79698;SHT31;69168;42.708;23.286;2023-07-20T13:39:54;34.12;31.77
79698;SHT31;69168;42.708;23.286;2023-07-20T13:42:19;34.55;32.09
79698;SHT31;69168;42.708;23.286;2023-07-20T13:44:47;34.70;31.95
79698;SHT31;69168;42.708;23.286;2023-07-20T13:47:13;34.90;32.27
79698;SHT31;69168;42.708;23.286;2023-07-20T13:49:38;35.75;31.02
79698;SHT31;69168;42.708;23.286;2023-07-20T13:52:04;34.83;31.64
79698;SHT31;69168;42.708;23.286;2023-07-20T13:54:29;34.80;31.62
79698;SHT31;69168;42.708;23.286;2023-07-20T13:56:55;34.70;30.27
79698;SHT31;69168;42.708;23.286;2023-07-20T13:59:20;34.22;29.75
79698;SHT31;69168;42.708;23.286;2023-07-20T14:01:46;34.28;29.03
79698;SHT31;69168;42.708;23.286;2023-07-20T14:04:12;34.76;28.77
79698;SHT31;69168;42.708;23.286;2023-07-20T14:06:37;34.60;28.07
79698;SHT31;69168;42.708;23.286;2023-07-20T14:09:03;34.86;28.43
79698;SHT31;69168;42.708;23.286;2023-07-20T14:11:28;34.79;29.01
79698;SHT31;69168;42.708;23.286;2023-07-20T14:13:54;35.07;29.03
79698;SHT31;69168;42.708;23.286;2023-07-20T14:16:21;34.93;29.54
79698;SHT31;69168;42.708;23.286;2023-07-20T14:18:46;34.86;29.62
79698;SHT31;69168;42.708;23.286;2023-07-20T14:21:14;34.90;29.68
79698;SHT31;69168;42.708;23.286;2023-07-20T14:23:39;34.66;29.80
79698;SHT31;69168;42.708;23.286;2023-07-20T14:26:04;34.40;30.16
79698;SHT31;69168;42.708;23.286;2023-07-20T14:28:31;34.13;30.70
79698;SHT31;69168;42.708;23.286;2023-07-20T14:30:57;34.13;31.18
79698;SHT31;69168;42.708;23.286;2023-07-20T14:33:22;33.97;31.38
79698;SHT31;69168;42.708;23.286;2023-07-20T14:35:48;34.40;31.01
79698;SHT31;69168;42.708;23.286;2023-07-20T14:38:13;34.31;31.28
79698;SHT31;69168;42.708;23.286;2023-07-20T14:40:38;34.63;31.16
79698;SHT31;69168;42.708;23.286;2023-07-20T14:43:04;34.04;31.12
79698;SHT31;69168;42.708;23.286;2023-07-20T14:45:29;34.21;31.88
79698;SHT31;69168;42.708;23.286;2023-07-20T14:47:55;34.42;31.71
79698;SHT31;69168;42.708;23.286;2023-07-20T14:50:21;34.53;32.03
79698;SHT31;69168;42.708;23.286;2023-07-20T14:52:47;34.73;31.54
79698;SHT31;69168;42.708;23.286;2023-07-20T14:55:12;35.24;30.85
79698;SHT31;69168;42.708;23.286;2023-07-20T14:57:38;34.63;32.07
79698;SHT31;69168;42.708;23.286;2023-07-20T15:00:05;34.68;32.43
79698;SHT31;69168;42.708;23.286;2023-07-20T15:02:39;35.28;31.35
79698;SHT31;69168;42.708;23.286;2023-07-20T15:05:08;34.82;31.91
79698;SHT31;69168;42.708;23.286;2023-07-20T15:07:34;34.87;32.07
79698;SHT31;69168;42.708;23.286;2023-07-20T15:10:03;34.42;32.76
79698;SHT31;69168;42.708;23.286;2023-07-20T15:12:30;34.94;32.31
79698;SHT31;69168;42.708;23.286;2023-07-20T15:15:05;34.74;32.00
79698;SHT31;69168;42.708;23.286;2023-07-20T15:17:31;34.43;32.68
79698;SHT31;69168;42.708;23.286;2023-07-20T15:19:57;34.33;33.17
79698;SHT31;69168;42.708;23.286;2023-07-20T15:22:22;34.97;32.40
79698;SHT31;69168;42.708;23.286;2023-07-20T15:24:48;34.87;32.16